TimeCDT,TemperatureF,Dew PointF,Humidity,Sea Level PressureIn,VisibilityMPH,Wind Direction,Wind SpeedMPH,Gust SpeedMPH,PrecipitationIn,Events,Conditions,WindDirDegrees,DateUTC
12:55 AM,60.1,37.9,44,29.86,10.0,SSE,8.1,-,N/A,,Overcast,150,2013-05-28 05:55:00
1:55 AM,57.9,37.9,47,29.85,10.0,SE,5.8,-,N/A,,Overcast,140,2013-05-28 06:55:00
2:55 AM,57.0,37.0,47,29.83,10.0,ESE,8.1,-,N/A,,Overcast,120,2013-05-28 07:55:00
3:55 AM,54.0,37.9,55,29.83,10.0,SE,5.8,-,N/A,,Overcast,130,2013-05-28 08:55:00
4:55 AM,53.1,37.9,57,29.83,10.0,ESE,4.6,-,N/A,,Overcast,110,2013-05-28 09:55:00
5:55 AM,48.0,39.0,71,29.82,10.0,SE,4.6,-,N/A,,Partly Cloudy,130,2013-05-28 10:55:00
6:55 AM,53.1,39.9,61,29.81,10.0,ESE,8.1,-,N/A,,Clear,120,2013-05-28 11:55:00
7:55 AM,55.0,42.1,62,29.81,10.0,SE,8.1,-,N/A,,Overcast,130,2013-05-28 12:55:00
8:06 AM,55.4,42.8,63,29.80,10.0,SE,5.8,-,N/A,,Overcast,130,2013-05-28 13:06:00
8:39 AM,55.4,44.6,67,29.78,10.0,SE,6.9,-,N/A,,Overcast,130,2013-05-28 13:39:00
8:55 AM,55.9,44.1,64,29.79,10.0,SE,9.2,-,N/A,,Overcast,130,2013-05-28 13:55:00
9:55 AM,57.9,46.0,65,29.78,10.0,ESE,6.9,-,N/A,,Overcast,120,2013-05-28 14:55:00
10:55 AM,61.0,46.9,60,29.77,10.0,SE,10.4,-,N/A,,Overcast,140,2013-05-28 15:55:00
11:55 AM,63.0,48.0,58,29.76,10.0,ESE,9.2,-,N/A,,Overcast,110,2013-05-28 16:55:00
12:55 PM,64.9,48.9,56,29.75,10.0,SE,12.7,-,N/A,,Overcast,130,2013-05-28 17:55:00
1:55 PM,68.0,48.9,50,29.73,10.0,South,8.1,-,N/A,,Overcast,170,2013-05-28 18:55:00
2:55 PM,69.1,48.9,49,29.71,10.0,Variable,5.8,-,N/A,,Overcast,0,2013-05-28 19:55:00
3:55 PM,70.0,50.0,49,29.70,10.0,Variable,6.9,-,N/A,,Overcast,0,2013-05-28 20:55:00
4:55 PM,69.1,51.1,53,29.70,10.0,South,9.2,-,N/A,,Overcast,190,2013-05-28 21:55:00
5:55 PM,70.0,52.0,53,29.69,10.0,Variable,5.8,-,N/A,,Mostly Cloudy,0,2013-05-28 22:55:00
6:55 PM,68.0,52.0,56,29.69,10.0,Variable,4.6,-,N/A,,Overcast,0,2013-05-28 23:55:00
7:55 PM,66.9,53.1,61,29.69,10.0,SW,3.5,-,N/A,,Overcast,220,2013-05-29 00:55:00
8:55 PM,66.0,53.1,63,29.68,10.0,Calm,Calm,-,N/A,,Overcast,0,2013-05-29 01:55:00
9:55 PM,64.0,53.1,67,29.68,10.0,South,3.5,-,N/A,,Overcast,190,2013-05-29 02:55:00
10:55 PM,63.0,53.1,70,29.68,10.0,Variable,4.6,-,N/A,,Overcast,0,2013-05-29 03:55:00
11:55 PM,62.1,52.0,70,29.67,10.0,South,3.5,-,N/A,,Overcast,190,2013-05-29 04:55:00